Time;durP1;ratioP1;P1;durP2;ratioP2;P2;SDS_P1;SDS_P2;PMS_P1;PMS_P2;Temp;Humidity;BMP_temperature;BMP_pressure;BME280_temperature;BME280_humidity;BME280_pressure;Samples;Min_cycle;Max_cycle;Signal;HPM_P1;HPM_P2
2023/06/30 00:00:25;;;;;;;;;33.00;30.00;;;;;23.24;57.39;100969.44;2081719;28;45208;-62
2023/06/30 00:01:26;;;;;;;;;28.40;25.60;;;;;23.24;57.52;100961.31;2084301;28;46529;-62
2023/06/30 00:02:27;;;;;;;;;26.40;24.80;;;;;23.25;57.31;100964.88;2104575;28;46864;-61
2023/06/30 00:03:27;;;;;;;;;21.00;21.00;;;;;23.25;57.35;100975.72;2102769;28;46579;-61
2023/06/30 00:04:30;;;;;;;;;19.00;18.50;;;;;23.25;57.34;100968.50;2104700;28;46596;-62
2023/06/30 00:05:30;;;;;;;;;15.00;14.00;;;;;23.26;57.29;100969.34;2099033;28;46420;-61
2023/06/30 00:06:30;;;;;;;;;13.75;13.00;;;;;23.27;57.23;100974.66;2098407;28;46366;-61
2023/06/30 00:07:31;;;;;;;;;5.75;4.50;;;;;23.26;57.22;100972.06;2097488;28;46475;-62
2023/06/30 00:08:32;;;;;;;;;11.00;11.00;;;;;23.25;57.27;100964.88;2104607;28;46909;-61
2023/06/30 00:09:32;;;;;;;;;10.00;9.60;;;;;23.26;57.30;100966.66;2101358;28;45471;-61
2023/06/30 00:10:33;;;;;;;;;8.50;7.75;;;;;23.25;57.14;100971.19;2096857;28;46409;-61
2023/06/30 00:11:33;;;;;;;;;7.75;7.75;;;;;23.24;57.21;100971.28;2103584;28;46814;-61
2023/06/30 00:12:33;;;;;;;;;8.75;8.75;;;;;23.23;57.19;100966.84;2102219;28;46763;-62
2023/06/30 00:13:34;;;;;;;;;6.75;6.75;;;;;23.22;57.09;100962.41;2096159;28;46175;-61
2023/06/30 00:14:34;;;;;;;;;8.00;6.25;;;;;23.20;57.21;100962.50;2100591;28;46789;-63
2023/06/30 00:15:35;;;;;;;;;14.00;12.50;;;;;23.20;56.89;100963.38;2078087;28;46597;-61
2023/06/30 00:16:35;;;;;;;;;12.75;12.75;;;;;23.22;57.03;100963.25;2083536;28;46791;-61
2023/06/30 00:17:36;;;;;;;;;22.25;21.25;;;;;23.22;56.71;100967.81;2100534;28;46762;-63
2023/06/30 00:18:36;;;;;;;;;16.25;16.25;;;;;23.18;56.48;100959.06;2104643;28;46438;-61
2023/06/30 00:19:37;;;;;;;;;23.50;23.50;;;;;23.18;56.70;100964.47;2104595;28;46538;-61
2023/06/30 00:20:37;;;;;;;;;21.75;21.25;;;;;23.15;56.48;100959.28;2104719;28;46314;-61
2023/06/30 00:21:43;;;;;;;;;20.25;18.00;;;;;23.15;56.84;100961.97;2104643;28;46545;-62
2023/06/30 00:22:43;;;;;;;;;15.20;15.00;;;;;23.14;56.75;100960.25;2102297;28;46267;-60
2023/06/30 00:23:43;;;;;;;;;23.00;23.00;;;;;23.13;56.52;100969.34;2096798;28;46674;-61
2023/06/30 00:24:44;;;;;;;;;27.50;25.50;;;;;23.12;56.58;100954.06;2100721;28;46555;-61
2023/06/30 00:25:44;;;;;;;;;21.75;21.75;;;;;23.11;57.05;100957.72;2098616;27;46381;-61
2023/06/30 00:26:44;;;;;;;;;21.50;19.75;;;;;23.11;56.50;100961.31;2103706;27;46450;-62
2023/06/30 00:27:45;;;;;;;;;25.50;22.75;;;;;23.10;56.74;100951.44;2097549;28;46333;-61
2023/06/30 00:28:45;;;;;;;;;19.50;18.25;;;;;23.10;56.59;100954.16;2101567;28;45666;-63
2023/06/30 00:29:45;;;;;;;;;18.00;18.00;;;;;23.10;56.73;100958.72;2098136;28;46362;-62
2023/06/30 00:30:46;;;;;;;;;20.25;17.50;;;;;23.09;56.69;100959.69;2104763;28;46914;-60
2023/06/30 00:31:46;;;;;;;;;20.00;16.25;;;;;23.06;56.48;100954.50;2104468;28;46558;-62
2023/06/30 00:32:46;;;;;;;;;19.50;17.00;;;;;23.06;56.72;100955.34;2104921;28;46917;-60
2023/06/30 00:33:47;;;;;;;;;17.75;17.75;;;;;23.06;56.78;100958.06;2104003;27;46448;-60
2023/06/30 00:34:47;;;;;;;;;16.00;16.00;;;;;23.05;56.71;100956.34;2104161;28;46301;-61
2023/06/30 00:35:47;;;;;;;;;16.00;16.00;;;;;23.04;56.52;100957.31;2101370;28;45705;-61
2023/06/30 00:36:48;;;;;;;;;14.25;13.00;;;;;23.03;56.53;100962.84;2104186;28;46311;-60
2023/06/30 00:37:48;;;;;;;;;13.75;13.75;;;;;23.01;56.67;100962.94;2103566;28;46497;-61
2023/06/30 00:38:50;;;;;;;;;12.75;12.75;;;;;23.01;56.44;100959.38;2100976;28;45899;-61
2023/06/30 00:39:50;;;;;;;;;13.80;12.00;;;;;23.01;56.52;100964.78;2104648;28;46875;-61
2023/06/30 00:40:51;;;;;;;;;13.00;13.00;;;;;23.03;56.36;100962.84;2104397;27;46835;-62
2023/06/30 00:41:51;;;;;;;;;8.75;6.00;;;;;23.02;56.17;100961.97;2104986;28;46649;-59
2023/06/30 00:42:51;;;;;;;;;18.75;15.50;;;;;23.01;56.45;100957.53;2104442;28;46727;-62
2023/06/30 00:43:52;;;;;;;;;14.50;13.00;;;;;23.01;56.09;100956.66;2099100;28;46398;-62
2023/06/30 00:44:52;;;;;;;;;17.75;17.00;;;;;23.01;56.25;100964.78;2102553;28;46252;-60
2023/06/30 00:45:52;;;;;;;;;17.75;17.75;;;;;22.99;55.97;100970.28;2102725;28;47154;-61
2023/06/30 00:46:53;;;;;;;;;13.00;13.00;;;;;22.98;56.05;100967.69;2100278;28;46543;-61
2023/06/30 00:47:54;;;;;;;;;24.00;22.60;;;;;22.97;55.97;100974.06;2105087;28;46803;-61
2023/06/30 00:48:54;;;;;;;;;30.25;27.00;;;;;22.95;55.80;100974.19;2104798;28;46580;-61
2023/06/30 00:49:55;;;;;;;;;26.75;25.25;;;;;22.93;55.88;100975.28;2104260;28;46295;-61
2023/06/30 00:50:55;;;;;;;;;31.25;29.00;;;;;22.92;55.81;100974.41;2103492;28;46291;-61
2023/06/30 00:51:56;;;;;;;;;38.50;33.00;;;;;22.92;56.02;100974.41;2095973;28;46426;-60
2023/06/30 00:52:57;;;;;;;;;34.20;31.60;;;;;22.92;55.35;100974.41;2098767;28;47006;-61
2023/06/30 00:53:57;;;;;;;;;44.00;37.25;;;;;22.90;56.02;100973.66;2097484;28;46427;-60
2023/06/30 00:54:58;;;;;;;;;42.75;36.25;;;;;22.89;55.47;100980.91;2104333;28;46619;-60
2023/06/30 00:55:58;;;;;;;;;36.50;32.00;;;;;22.90;55.61;100973.66;2104663;28;46705;-61
2023/06/30 00:57:04;;;;;;;;;38.00;31.25;;;;;22.90;55.53;100971.81;2104481;28;46704;-61
2023/06/30 00:58:04;;;;;;;;;31.60;29.20;;;;;22.89;55.54;100964.66;2103719;28;45392;-62
2023/06/30 00:59:05;;;;;;;;;34.75;29.25;;;;;22.89;55.68;100971.91;2104355;28;46207;-63
2023/06/30 01:00:10;;;;;;;;;27.00;24.25;;;;;22.87;55.53;100971.16;2104503;28;45871;-61
2023/06/30 01:01:24;;;;;;;;;22.80;22.80;;;;;22.86;55.54;100970.25;2086162;28;46429;-63
2023/06/30 01:02:27;;;;;;;;;23.00;21.80;;;;;22.85;55.36;100970.38;2089039;28;47315;-61
2023/06/30 01:03:38;;;;;;;;;23.00;21.40;;;;;22.86;55.42;100978.38;2088102;28;46313;-59
2023/06/30 01:04:58;;;;;;;;;24.60;23.60;;;;;22.85;55.04;100976.66;2095142;28;46990;-61
2023/06/30 01:05:58;;;;;;;;;24.60;21.20;;;;;22.84;55.56;100982.16;2104308;28;46507;-61
2023/06/30 01:07:12;;;;;;;;;21.75;20.25;;;;;22.82;55.46;100989.50;2104082;28;46977;-60
2023/06/30 01:08:31;;;;;;;;;15.00;15.00;;;;;22.82;55.47;100989.50;2104853;27;46710;-61
2023/06/30 01:09:37;;;;;;;;;17.20;17.20;;;;;22.83;55.68;100985.84;2102631;28;46507;-60
2023/06/30 01:10:39;;;;;;;;;21.20;18.00;;;;;22.82;55.30;100990.38;2100164;28;46786;-62
2023/06/30 01:11:41;;;;;;;;;17.60;17.40;;;;;22.82;54.96;100995.78;2096497;28;46907;-61
2023/06/30 01:12:43;;;;;;;;;15.60;14.60;;;;;22.82;55.07;100994.91;2096883;28;45938;-62
2023/06/30 01:13:44;;;;;;;;;18.00;18.00;;;;;22.82;55.57;100990.38;2098068;28;46944;-63
2023/06/30 01:14:46;;;;;;;;;17.20;16.60;;;;;22.82;55.15;100986.78;2104569;28;46609;-62
2023/06/30 01:15:47;;;;;;;;;15.20;14.20;;;;;22.80;55.07;100986.03;2101553;28;46283;-61
2023/06/30 01:16:49;;;;;;;;;19.00;18.75;;;;;22.80;55.45;100986.03;2098592;28;46172;-61
2023/06/30 01:17:56;;;;;;;;;20.60;20.20;;;;;22.80;55.16;100983.34;2096555;28;46943;-61
2023/06/30 01:18:58;;;;;;;;;28.80;27.40;;;;;22.78;55.15;100975.31;2096424;28;46363;-60
2023/06/30 01:20:00;;;;;;;;;35.80;31.00;;;;;22.79;55.38;100982.47;2095366;28;46803;-61
2023/06/30 01:21:01;;;;;;;;;49.40;41.60;;;;;22.78;55.23;100985.28;2095886;28;46267;-63
2023/06/30 01:22:18;;;;;;;;;57.40;44.00;;;;;22.75;55.27;100983.66;2095150;28;46849;-61
2023/06/30 01:23:37;;;;;;;;;56.40;45.40;;;;;22.74;54.98;100992.75;2090449;28;46447;-61
2023/06/30 01:24:38;;;;;;;;;60.80;49.00;;;;;22.73;55.11;100984.72;2091839;28;46991;-62
2023/06/30 01:25:39;;;;;;;;;25.75;22.75;;;;;22.75;55.11;100999.03;2093237;28;46496;-62
2023/06/30 01:26:41;;;;;;;;;61.60;48.60;;;;;22.75;54.77;100999.03;2096292;28;46309;-61
2023/06/30 01:27:42;;;;;;;;;63.60;48.80;;;;;22.74;54.58;101002.66;2093831;28;46379;-61
2023/06/30 01:28:43;;;;;;;;;58.20;46.20;;;;;22.73;54.86;101000.94;2097212;28;47058;-61
2023/06/30 01:29:43;;;;;;;;;53.00;42.50;;;;;22.73;54.99;101000.94;2099918;28;45945;-63
2023/06/30 01:30:44;;;;;;;;;48.00;40.75;;;;;22.73;54.96;101004.50;2105608;28;46701;-63
2023/06/30 01:31:45;;;;;;;;;48.25;41.00;;;;;22.73;54.99;100995.53;2099010;28;46318;-62
2023/06/30 01:32:46;;;;;;;;;45.60;38.40;;;;;22.72;55.03;100997.38;2094628;28;46500;-61
2023/06/30 01:33:47;;;;;;;;;43.20;34.20;;;;;22.72;54.86;100993.78;2105238;28;47111;-61
2023/06/30 01:34:47;;;;;;;;;38.00;31.50;;;;;22.72;54.55;100999.22;2094033;28;46450;-61
2023/06/30 01:35:48;;;;;;;;;29.25;28.25;;;;;22.72;54.49;101001.91;2085969;28;45148;-60
2023/06/30 01:36:49;;;;;;;;;35.25;31.75;;;;;22.71;54.55;100992.94;2094655;28;46448;-61
2023/06/30 01:37:49;;;;;;;;;29.50;28.00;;;;;22.71;55.04;100997.47;2097215;28;46872;-63
2023/06/30 01:38:50;;;;;;;;;21.50;19.25;;;;;22.70;54.70;100991.19;2097658;28;46465;-60
2023/06/30 01:39:50;;;;;;;;;36.25;30.75;;;;;22.68;54.30;100995.84;2103987;28;46647;-61
2023/06/30 01:40:50;;;;;;;;;29.50;27.75;;;;;22.68;54.54;100995.00;2105649;28;47192;-60
2023/06/30 01:41:52;;;;;;;;;31.00;28.75;;;;;22.68;54.59;100997.69;2097513;28;46635;-60
2023/06/30 01:42:55;;;;;;;;;29.40;29.00;;;;;22.68;54.51;101000.41;2100579;28;46511;-61
2023/06/30 01:43:56;;;;;;;;;27.60;27.00;;;;;22.66;54.30;101000.50;2105999;28;46450;-61
2023/06/30 01:44:59;;;;;;;;;28.00;27.75;;;;;22.66;54.13;100996.94;2106352;28;46261;-60
2023/06/30 01:46:00;;;;;;;;;24.40;24.40;;;;;22.66;54.45;101000.50;2105609;28;46389;-61
2023/06/30 01:47:01;;;;;;;;;26.50;24.50;;;;;22.66;54.57;101002.34;2105809;28;46420;-61
2023/06/30 01:48:02;;;;;;;;;21.20;20.80;;;;;22.64;54.31;100993.47;2105762;28;46494;-61
2023/06/30 01:49:02;;;;;;;;;21.00;20.00;;;;;22.64;54.68;100990.75;2105522;28;46128;-61
2023/06/30 01:50:05;;;;;;;;;19.50;19.50;;;;;22.63;54.27;100998.00;2101686;28;45436;-61
2023/06/30 01:51:06;;;;;;;;;23.00;21.40;;;;;22.62;54.07;101004.41;2082133;28;47065;-61
2023/06/30 01:52:07;;;;;;;;;20.40;19.20;;;;;22.60;54.18;100998.19;2081080;28;46299;-59
2023/06/30 01:53:07;;;;;;;;;14.50;14.25;;;;;22.61;54.14;100999.94;2098699;28;46823;-60
2023/06/30 01:54:07;;;;;;;;;17.50;17.25;;;;;22.59;54.37;100996.47;2098014;28;46186;-61
2023/06/30 01:55:08;;;;;;;;;12.75;12.75;;;;;22.59;54.66;100999.16;2102288;27;46103;-61
2023/06/30 01:56:08;;;;;;;;;11.75;10.75;;;;;22.59;54.29;100996.47;2105741;28;46343;-61
2023/06/30 01:57:11;;;;;;;;;12.25;11.00;;;;;22.59;54.61;100991.91;2105656;28;46491;-60
2023/06/30 01:58:11;;;;;;;;;8.00;8.00;;;;;22.60;54.66;100990.09;2105890;28;46395;-59
2023/06/30 01:59:11;;;;;;;;;14.25;13.75;;;;;22.60;54.83;100988.25;2105322;28;46917;-60
2023/06/30 02:00:12;;;;;;;;;19.75;18.50;;;;;22.59;54.62;100988.34;2104568;28;45976;-62
2023/06/30 02:01:12;;;;;;;;;17.50;16.25;;;;;22.58;54.66;100986.63;2099155;28;48012;-61
2023/06/30 02:02:13;;;;;;;;;14.25;13.50;;;;;22.58;54.47;100986.63;2108674;27;46120;-61
2023/06/30 02:03:13;;;;;;;;;15.00;14.25;;;;;22.57;54.47;100982.19;2102347;27;45682;-62
2023/06/30 02:04:13;;;;;;;;;11.75;10.75;;;;;22.57;54.42;100995.72;2097340;28;45697;-60
2023/06/30 02:05:14;;;;;;;;;9.25;9.25;;;;;22.56;54.72;100985.84;2097208;28;46284;-61
2023/06/30 02:06:14;;;;;;;;;4.00;4.00;;;;;22.56;54.31;100985.84;2099672;28;45823;-61
2023/06/30 02:07:15;;;;;;;;;3.00;3.00;;;;;22.56;54.48;100986.72;2105689;27;46718;-61
2023/06/30 02:08:15;;;;;;;;;3.00;3.00;;;;;22.58;54.66;100986.63;2105842;28;46367;-62
2023/06/30 02:09:16;;;;;;;;;1.33;1.33;;;;;22.57;54.59;100991.16;2103622;28;46850;-60
2023/06/30 02:10:16;;;;;;;;;2.33;1.00;;;;;22.57;54.21;100991.16;2102275;28;46405;-61
2023/06/30 02:11:16;;;;;;;;;2.00;2.00;;;;;22.57;54.31;100985.75;2093151;28;46184;-60
2023/06/30 02:12:17;;;;;;;;;4.00;3.00;;;;;22.57;54.02;100993.88;2096699;28;47620;-61
2023/06/30 02:13:17;;;;;;;;;4.00;3.00;;;;;22.55;54.04;100990.41;2105216;28;46308;-61
2023/06/30 02:14:18;;;;;;;;;2.33;2.00;;;;;22.55;54.08;100998.53;2105723;28;47187;-61
2023/06/30 02:15:18;;;;;;;;;0.67;0.67;;;;;22.54;54.36;100995.91;2106072;28;46432;-62
2023/06/30 02:16:18;;;;;;;;;1.00;1.00;;;;;22.53;54.01;100995.06;2101530;28;46231;-60
2023/06/30 02:17:32;;;;;;;;;0.00;0.00;;;;;22.53;54.05;100991.47;2097442;28;46665;-62
2023/06/30 02:18:32;;;;;;;;;1.00;1.00;;;;;22.53;53.77;100994.19;2096405;28;46783;-62
2023/06/30 02:19:33;;;;;;;;;2.00;1.00;;;;;22.52;53.84;100995.16;2093346;28;46500;-62
2023/06/30 02:20:33;;;;;;;;;4.33;4.00;;;;;22.54;53.75;100998.63;2097477;28;47056;-59
2023/06/30 02:21:34;;;;;;;;;4.67;4.67;;;;;22.53;53.98;100997.75;2104301;28;45837;-60
2023/06/30 02:22:34;;;;;;;;;7.00;5.00;;;;;22.53;53.99;100997.75;2104930;28;47006;-62
2023/06/30 02:23:34;;;;;;;;;3.25;2.25;;;;;22.53;53.88;100999.59;2104865;28;46710;-62
2023/06/30 02:24:35;;;;;;;;;7.25;7.25;;;;;22.53;54.12;101011.28;2092158;28;46246;-61
2023/06/30 02:25:35;;;;;;;;;6.00;6.00;;;;;22.53;53.97;101007.72;2087939;28;46996;-60
2023/06/30 02:26:36;;;;;;;;;6.00;6.00;;;;;22.52;53.27;101004.13;2095043;28;46235;-61
2023/06/30 02:27:36;;;;;;;;;7.00;5.67;;;;;22.50;53.71;101008.78;2097159;28;46706;-60
2023/06/30 02:28:36;;;;;;;;;6.67;5.00;;;;;22.50;53.55;101010.63;2103474;27;46690;-62
2023/06/30 02:29:37;;;;;;;;;6.00;6.00;;;;;22.48;53.79;101009.84;2100040;28;45631;-61
2023/06/30 02:30:37;;;;;;;;;7.00;7.00;;;;;22.46;53.99;101009.94;2105738;28;46079;-60
2023/06/30 02:31:37;;;;;;;;;6.50;6.50;;;;;22.46;53.79;101009.94;2105435;28;46122;-61
2023/06/30 02:32:40;;;;;;;;;6.67;6.67;;;;;22.46;53.80;101015.34;2105242;28;46381;-61
2023/06/30 02:33:41;;;;;;;;;5.60;5.60;;;;;22.46;54.14;101012.66;2097407;28;46521;-61
2023/06/30 02:34:41;;;;;;;;;7.33;6.00;;;;;22.46;54.04;101017.19;2096677;28;47026;-61
2023/06/30 02:35:42;;;;;;;;;5.00;4.67;;;;;22.44;53.75;101006.47;2105818;27;46303;-61
2023/06/30 02:36:42;;;;;;;;;6.00;5.00;;;;;22.42;54.24;101011.13;2107388;27;46385;-60
2023/06/30 02:37:42;;;;;;;;;5.00;3.67;;;;;22.41;54.31;101013.94;2104893;27;46823;-61
2023/06/30 02:38:43;;;;;;;;;2.00;2.00;;;;;22.38;54.04;101012.31;2096838;28;46386;-61
2023/06/30 02:39:43;;;;;;;;;2.00;2.00;;;;;22.37;54.39;101012.41;2097967;28;46185;-59
2023/06/30 02:40:44;;;;;;;;;5.00;5.00;;;;;22.36;54.28;101013.34;2097045;28;46274;-61
2023/06/30 02:41:45;;;;;;;;;3.50;3.50;;;;;22.36;53.91;101006.13;2097138;28;46413;-60
2023/06/30 02:42:45;;;;;;;;;3.00;3.00;;;;;22.36;54.39;101008.84;2097197;28;46187;-61
2023/06/30 02:43:46;;;;;;;;;4.00;4.00;;;;;22.37;54.53;101015.13;2097392;28;46695;-60
2023/06/30 02:44:46;;;;;;;;;2.67;2.67;;;;;22.37;54.27;101009.72;2102663;28;46453;-61
2023/06/30 02:45:47;;;;;;;;;4.00;4.00;;;;;22.36;54.20;101003.44;2105644;28;46813;-60
2023/06/30 02:46:47;;;;;;;;;3.00;2.00;;;;;22.36;54.36;101005.25;2105392;28;46063;-60
2023/06/30 02:47:47;;;;;;;;;3.67;2.33;;;;;22.35;54.50;101004.38;2102363;28;46310;-60
2023/06/30 02:48:48;;;;;;;;;3.67;3.67;;;;;22.34;54.51;101005.34;2097002;28;46127;-61
2023/06/30 02:49:48;;;;;;;;;3.00;2.67;;;;;22.32;54.47;101001.88;2097946;28;46242;-61
2023/06/30 02:50:49;;;;;;;;;2.00;2.00;;;;;22.32;54.19;101004.59;2105569;28;47022;-60
2023/06/30 02:51:49;;;;;;;;;3.00;3.00;;;;;22.29;54.30;101000.25;2096447;28;46667;-60
2023/06/30 02:52:49;;;;;;;;;1.33;1.33;;;;;22.29;54.28;101008.38;2094880;28;46754;-61
2023/06/30 02:53:50;;;;;;;;;2.00;2.00;;;;;22.29;54.55;101002.97;2079106;28;46802;-60
2023/06/30 02:54:50;;;;;;;;;3.33;3.33;;;;;22.30;54.22;101004.69;2087244;28;46690;-61
2023/06/30 02:55:50;;;;;;;;;4.33;2.67;;;;;22.31;54.55;101005.56;2099573;28;46446;-61
2023/06/30 02:56:51;;;;;;;;;1.00;1.00;;;;;22.32;54.38;101007.28;2105584;28;46177;-59
2023/06/30 02:57:51;;;;;;;;;3.00;3.00;;;;;22.32;54.19;101005.44;2105071;28;46391;-63
2023/06/30 02:58:52;;;;;;;;;4.00;4.00;;;;;22.32;54.02;101007.28;2105196;28;46390;-61
2023/06/30 02:59:52;;;;;;;;;2.00;2.00;;;;;22.29;54.58;101011.06;2105467;28;46655;-60
2023/06/30 03:00:55;;;;;;;;;3.00;3.00;;;;;22.27;54.23;101006.75;2102723;28;46233;-61
2023/06/30 03:01:56;;;;;;;;;1.00;1.00;;;;;22.25;54.18;101009.53;2097775;27;46268;-62
2023/06/30 03:02:56;;;;;;;;;1.00;1.00;;;;;22.23;54.20;101007.88;2104535;27;46168;-61
2023/06/30 03:03:56;;;;;;;;;3.67;3.67;;;;;22.21;54.31;101009.81;2104188;28;46358;-61
2023/06/30 03:04:57;;;;;;;;;3.00;3.00;;;;;22.19;54.32;101000.97;2105360;28;45968;-59
2023/06/30 03:05:57;;;;;;;;;3.00;3.00;;;;;22.19;54.36;101001.81;2099607;28;46229;-60
2023/06/30 03:06:58;;;;;;;;;3.67;3.67;;;;;22.19;54.14;100998.25;2096791;28;45523;-61
2023/06/30 03:07:58;;;;;;;;;3.00;3.00;;;;;22.18;54.13;101000.09;2096321;28;46876;-60
2023/06/30 03:08:58;;;;;;;;;5.00;4.67;;;;;22.16;53.85;101004.72;2096256;28;46696;-61
2023/06/30 03:09:59;;;;;;;;;2.67;2.33;;;;;22.17;54.19;100997.50;2096917;28;46572;-60
2023/06/30 03:10:59;;;;;;;;;5.00;4.67;;;;;22.15;54.36;100994.91;2097083;28;45932;-60
2023/06/30 03:12:00;;;;;;;;;0.00;0.00;;;;;22.13;54.07;100995.97;2087381;28;45989;-60
2023/06/30 03:13:00;;;;;;;;;17.50;17.50;;;;;22.12;54.08;100999.66;2087044;28;46224;-62
2023/06/30 03:14:00;;;;;;;;;5.75;4.75;;;;;22.12;53.79;101002.34;2096575;28;46375;-60
2023/06/30 03:15:01;;;;;;;;;5.33;3.67;;;;;22.10;54.45;101002.41;2096283;28;45152;-60
2023/06/30 03:16:01;;;;;;;;;4.67;3.00;;;;;22.08;54.19;101001.66;2104741;28;46566;-60
2023/06/30 03:17:02;;;;;;;;;7.00;6.00;;;;;22.07;54.13;100999.91;2099921;28;46155;-59
2023/06/30 03:18:02;;;;;;;;;6.00;5.33;;;;;22.04;53.76;100995.56;2104701;28;47046;-61
2023/06/30 03:19:02;;;;;;;;;5.00;5.00;;;;;22.05;54.06;101001.81;2105274;28;46959;-59
2023/06/30 03:20:10;;;;;;;;;5.00;5.00;;;;;22.04;53.96;101000.97;2105252;28;46699;-61
2023/06/30 03:21:10;;;;;;;;;8.25;7.50;;;;;22.04;53.97;101000.09;2105256;28;46865;-60
2023/06/30 03:22:11;;;;;;;;;8.33;7.67;;;;;22.02;54.03;101000.19;2105375;28;46630;-60
2023/06/30 03:23:14;;;;;;;;;5.00;5.00;;;;;22.02;54.09;100999.34;2105168;28;46654;-61
2023/06/30 03:24:15;;;;;;;;;6.00;6.00;;;;;22.01;54.01;101001.16;2104969;28;46987;-61
2023/06/30 03:25:15;;;;;;;;;5.00;5.00;;;;;22.01;53.70;101001.16;2095949;28;46513;-61
2023/06/30 03:26:15;;;;;;;;;5.00;5.00;;;;;22.03;53.62;100995.66;2094345;28;46559;-61
2023/06/30 03:27:16;;;;;;;;;3.00;3.00;;;;;22.03;53.29;101001.94;2104676;27;46651;-62
2023/06/30 03:28:16;;;;;;;;;4.00;4.00;;;;;22.03;53.58;101004.63;2113611;27;45984;-62
2023/06/30 03:29:16;;;;;;;;;4.00;4.00;;;;;22.03;53.84;101001.94;2109327;27;46717;-62
2023/06/30 03:30:17;;;;;;;;;4.33;4.33;;;;;22.02;53.41;100996.63;2112240;27;46206;-60
2023/06/30 03:31:18;;;;;;;;;4.00;4.00;;;;;21.99;53.60;101000.41;2107189;27;46727;-60
2023/06/30 03:32:19;;;;;;;;;4.00;4.00;;;;;21.98;53.62;100990.56;2105898;27;46361;-61
2023/06/30 03:33:21;;;;;;;;;3.33;3.33;;;;;21.98;53.51;100992.41;2104931;28;46648;-61
2023/06/30 03:34:21;;;;;;;;;3.00;3.00;;;;;21.96;53.52;100997.88;2105220;28;46960;-60
2023/06/30 03:35:22;;;;;;;;;1.33;1.33;;;;;21.97;53.22;100990.63;2107310;27;45915;-61
2023/06/30 03:36:22;;;;;;;;;1.33;1.33;;;;;21.96;53.49;100980.78;2109805;27;45594;-61
2023/06/30 03:37:23;;;;;;;;;3.00;3.00;;;;;21.95;53.24;100984.47;2110661;27;46661;-61
2023/06/30 03:38:23;;;;;;;;;2.33;2.33;;;;;21.96;52.98;100983.50;2106613;27;46892;-60
2023/06/30 03:39:23;;;;;;;;;2.00;1.67;;;;;21.94;53.02;100980.91;2104930;28;46364;-60
2023/06/30 03:40:24;;;;;;;;;2.00;2.00;;;;;21.95;53.25;100982.63;2096791;28;46594;-62
2023/06/30 03:41:25;;;;;;;;;4.00;3.00;;;;;21.94;53.08;100980.91;2101330;28;45763;-60
2023/06/30 03:42:25;;;;;;;;;3.00;1.75;;;;;21.94;53.10;100986.31;2100441;27;47137;-60
2023/06/30 03:43:26;;;;;;;;;2.67;2.00;;;;;21.92;53.10;100977.44;2113785;27;46789;-61
2023/06/30 03:44:27;;;;;;;;;2.00;2.00;;;;;21.91;53.17;100991.03;2100366;28;46608;-60
2023/06/30 03:45:27;;;;;;;;;3.25;2.75;;;;;21.90;52.85;100982.06;2101908;28;46681;-62
2023/06/30 03:46:27;;;;;;;;;2.00;2.00;;;;;21.89;53.46;100984.88;2110153;27;46899;-61
2023/06/30 03:47:27;;;;;;;;;2.00;1.00;;;;;21.87;53.18;100984.13;2108502;27;46773;-60
2023/06/30 03:48:28;;;;;;;;;5.00;4.00;;;;;21.85;53.02;100981.50;2113072;27;46037;-60
2023/06/30 03:49:28;;;;;;;;;1.00;1.00;;;;;21.85;53.04;100980.63;2109737;27;46185;-61
2023/06/30 03:50:28;;;;;;;;;3.67;3.00;;;;;21.84;53.24;100982.44;2106996;27;46847;-60
2023/06/30 03:51:29;;;;;;;;;2.00;2.00;;;;;21.85;53.19;100986.91;2088493;28;46301;-60
2023/06/30 03:52:29;;;;;;;;;3.00;3.00;;;;;21.85;53.35;100991.44;2097900;28;46062;-61
2023/06/30 03:53:29;;;;;;;;;1.67;1.67;;;;;21.86;53.12;100993.19;2111682;27;46907;-62
2023/06/30 03:54:30;;;;;;;;;2.33;2.33;;;;;21.87;53.64;100994.91;2112570;27;46400;-60
2023/06/30 03:55:30;;;;;;;;;1.00;1.00;;;;;21.88;53.52;100991.25;2110326;27;46512;-60
2023/06/30 03:56:30;;;;;;;;;2.00;2.00;;;;;21.88;53.51;100993.94;2113386;27;46770;-61
2023/06/30 03:57:31;;;;;;;;;3.00;3.00;;;;;21.88;52.86;100996.66;2110171;27;46394;-60
2023/06/30 03:58:31;;;;;;;;;1.67;1.67;;;;;21.87;52.97;100997.63;2110705;27;46409;-61
2023/06/30 03:59:32;;;;;;;;;2.67;1.67;;;;;21.87;53.26;100993.09;2113757;27;46560;-62
2023/06/30 04:00:33;;;;;;;;;2.50;2.50;;;;;21.86;52.99;100996.75;2113350;27;46274;-60
2023/06/30 04:01:34;;;;;;;;;2.50;2.50;;;;;21.85;53.08;100996.81;2111876;27;46646;-62
2023/06/30 04:02:34;;;;;;;;;5.00;5.00;;;;;21.84;52.68;100992.41;2100806;28;46685;-60
2023/06/30 04:03:34;;;;;;;;;7.75;7.75;;;;;21.83;52.68;100996.06;2097869;28;46209;-60
2023/06/30 04:04:35;;;;;;;;;9.75;9.00;;;;;21.83;52.58;100990.66;2104977;28;46026;-62
2023/06/30 04:05:35;;;;;;;;;8.00;8.00;;;;;21.82;52.75;100988.94;2112937;27;46717;-60
2023/06/30 04:06:36;;;;;;;;;9.00;8.33;;;;;21.80;52.53;100991.72;2109975;27;46579;-60
2023/06/30 04:07:37;;;;;;;;;8.75;8.75;;;;;21.78;53.09;100992.81;2113528;27;46162;-60
2023/06/30 04:08:37;;;;;;;;;7.00;7.00;;;;;21.77;53.03;100991.94;2108558;27;46804;-60
2023/06/30 04:09:38;;;;;;;;;8.25;8.25;;;;;21.76;53.07;100995.59;2097874;27;46205;-61
2023/06/30 04:10:38;;;;;;;;;7.25;7.25;;;;;21.74;52.97;100989.44;2102286;28;46264;-62
2023/06/30 04:11:39;;;;;;;;;8.75;8.75;;;;;21.72;52.96;100989.53;2093632;28;46265;-60
2023/06/30 04:12:39;;;;;;;;;6.00;6.00;;;;;21.72;52.91;100992.25;2096190;28;46371;-61
2023/06/30 04:13:39;;;;;;;;;7.25;6.25;;;;;21.73;52.59;100990.41;2110439;27;46816;-61
2023/06/30 04:14:40;;;;;;;;;7.67;7.67;;;;;21.72;53.04;100994.03;2110002;27;47017;-61
2023/06/30 04:15:40;;;;;;;;;7.50;7.50;;;;;21.72;52.90;100996.75;2113388;27;46738;-61
2023/06/30 04:16:40;;;;;;;;;5.50;5.50;;;;;21.72;52.88;100994.03;2110445;27;46175;-60
2023/06/30 04:17:41;;;;;;;;;8.50;8.50;;;;;21.72;52.69;100992.25;2111814;27;47105;-60
2023/06/30 04:18:41;;;;;;;;;9.50;8.50;;;;;21.72;52.84;100991.34;2107180;27;45720;-61
2023/06/30 04:19:41;;;;;;;;;7.50;7.50;;;;;21.70;52.50;100990.56;2103564;27;46574;-61
2023/06/30 04:20:41;;;;;;;;;8.25;6.75;;;;;21.70;52.46;100987.88;2105038;28;46535;-61
2023/06/30 04:21:42;;;;;;;;;5.75;5.25;;;;;21.68;52.59;100997.91;2100098;28;46310;-61
2023/06/30 04:22:42;;;;;;;;;5.67;5.67;;;;;21.66;52.86;100994.44;2098080;28;46142;-60
2023/06/30 04:23:43;;;;;;;;;5.00;5.00;;;;;21.64;52.28;100997.25;2113161;27;46314;-60
2023/06/30 04:24:43;;;;;;;;;2.33;2.33;;;;;21.62;52.53;100993.78;2110902;27;46309;-59
2023/06/30 04:25:43;;;;;;;;;5.00;5.00;;;;;21.61;52.38;100999.28;2112457;27;46522;-62
2023/06/30 04:26:44;;;;;;;;;4.00;3.33;;;;;21.60;52.47;100997.56;2107982;27;45928;-62
2023/06/30 04:27:45;;;;;;;;;5.00;4.00;;;;;21.60;52.75;100998.41;2078226;28;46814;-62
2023/06/30 04:28:45;;;;;;;;;5.67;4.67;;;;;21.62;52.98;101001.88;2077740;28;46258;-61
2023/06/30 04:29:45;;;;;;;;;2.00;2.00;;;;;21.63;52.81;101000.06;2102887;28;46278;-61
2023/06/30 04:30:46;;;;;;;;;3.00;3.00;;;;;21.62;52.53;101004.59;2102486;28;46292;-61
2023/06/30 04:31:47;;;;;;;;;2.50;2.50;;;;;21.62;52.83;101001.03;2101148;28;46945;-62
2023/06/30 04:32:47;;;;;;;;;4.33;4.33;;;;;21.61;52.49;100999.28;2095954;28;46224;-60
2023/06/30 04:33:47;;;;;;;;;3.00;3.00;;;;;21.62;52.78;100995.63;2104276;28;46858;-62
2023/06/30 04:34:48;;;;;;;;;2.00;2.00;;;;;21.60;52.92;100995.72;2105002;27;46660;-60
2023/06/30 04:35:49;;;;;;;;;1.50;1.00;;;;;21.60;52.95;100997.56;2106591;27;46381;-60
2023/06/30 04:36:49;;;;;;;;;1.00;1.00;;;;;21.59;52.95;101001.19;2111765;27;46355;-60
2023/06/30 04:37:49;;;;;;;;;4.00;3.00;;;;;21.59;52.81;100996.66;2107585;27;46361;-61
2023/06/30 04:38:50;;;;;;;;;3.67;3.67;;;;;21.61;52.61;101002.00;2104791;28;46254;-61
2023/06/30 04:39:51;;;;;;;;;1.25;1.25;;;;;21.60;52.41;101000.25;2110012;27;46881;-62
2023/06/30 04:40:52;;;;;;;;;2.00;2.00;;;;;21.61;52.26;100996.59;2108910;27;46723;-61
2023/06/30 04:41:52;;;;;;;;;3.67;2.33;;;;;21.61;52.45;101000.16;2113006;27;46516;-61